createdAt,value
2022-12-16T00:02:20.486Z,0.47
2022-12-16T00:05:45.684Z,0.39
2022-12-16T00:09:10.967Z,0.31
2022-12-16T00:12:36.277Z,0.26
2022-12-16T00:16:01.549Z,0.22
2022-12-16T00:19:26.792Z,0.2
2022-12-16T00:22:52.044Z,0.1
2022-12-16T00:26:17.327Z,-0.01
2022-12-16T00:29:42.626Z,-0.13
2022-12-16T00:33:07.896Z,-0.18
2022-12-16T00:36:33.163Z,-0.18
2022-12-16T00:39:58.423Z,-0.12
2022-12-16T00:43:23.712Z,-0.21
2022-12-16T00:46:48.985Z,-0.36
2022-12-16T00:50:14.253Z,-0.45
2022-12-16T00:53:39.535Z,-0.44
2022-12-16T00:57:04.773Z,-0.41
2022-12-16T01:00:30.057Z,-0.44
2022-12-16T01:03:55.479Z,-0.44
2022-12-16T01:07:20.581Z,-0.53
2022-12-16T01:10:45.827Z,-0.57
2022-12-16T01:14:11.085Z,-0.66
2022-12-16T01:17:36.346Z,-0.76
2022-12-16T01:21:01.616Z,-0.83
2022-12-16T01:24:26.887Z,-0.91
2022-12-16T01:27:52.168Z,-0.94
2022-12-16T01:31:17.475Z,-0.91
2022-12-16T01:34:42.726Z,-0.82
2022-12-16T01:38:08.078Z,-0.75
2022-12-16T01:41:33.303Z,-0.75
2022-12-16T01:44:58.561Z,-0.82
2022-12-16T01:48:23.842Z,-0.95
2022-12-16T01:51:52.552Z,-1.02
2022-12-16T01:55:14.401Z,-1
2022-12-16T01:58:39.658Z,-0.98
2022-12-16T02:02:05.105Z,-1.02
2022-12-16T02:05:30.177Z,-1.04
2022-12-16T02:08:55.458Z,-1.06
2022-12-16T02:12:20.722Z,-1.08
2022-12-16T02:15:45.970Z,-1.11
2022-12-16T02:19:11.229Z,-1.12
2022-12-16T02:22:36.524Z,-1.13
2022-12-16T02:26:01.778Z,-1.11
2022-12-16T02:29:27.088Z,-0.99
2022-12-16T02:32:52.330Z,-0.84
2022-12-16T02:36:17.608Z,-0.77
2022-12-16T02:39:42.855Z,-0.66
2022-12-16T02:43:08.142Z,-0.58
2022-12-16T02:46:33.418Z,-0.49
2022-12-16T02:49:58.657Z,-0.46
2022-12-16T02:53:23.931Z,-0.43
2022-12-16T02:56:49.209Z,-0.44
2022-12-16T03:00:14.468Z,-0.55
2022-12-16T03:03:39.850Z,-0.71
2022-12-16T03:07:05.021Z,-0.81
2022-12-16T03:10:30.300Z,-0.96
2022-12-16T03:13:55.548Z,-1.08
2022-12-16T03:17:20.791Z,-1.11
2022-12-16T03:20:46.093Z,-1.17
2022-12-16T03:24:11.337Z,-1.19
2022-12-16T03:27:36.614Z,-1.24
2022-12-16T03:31:01.866Z,-1.32
2022-12-16T03:34:27.108Z,-1.45
2022-12-16T03:37:52.412Z,-1.57
2022-12-16T03:41:17.653Z,-1.63
2022-12-16T03:44:42.927Z,-1.62
2022-12-16T03:48:08.179Z,-1.6
2022-12-16T03:51:33.437Z,-1.52
2022-12-16T03:54:58.719Z,-1.48
2022-12-16T03:58:23.958Z,-1.52
2022-12-16T04:01:49.352Z,-1.55
2022-12-16T04:05:14.490Z,-1.59
2022-12-16T04:08:39.762Z,-1.65
2022-12-16T04:12:05.038Z,-1.67
2022-12-16T04:15:30.326Z,-1.74
2022-12-16T04:18:55.562Z,-1.69
2022-12-16T04:22:20.811Z,-1.66
2022-12-16T04:25:46.082Z,-1.54
2022-12-16T04:29:11.373Z,-1.48
2022-12-16T04:32:36.586Z,-1.51
2022-12-16T04:36:02.015Z,-1.53
2022-12-16T04:39:27.304Z,-1.6
2022-12-16T04:42:52.976Z,-1.68
2022-12-16T04:46:18.277Z,-1.76
2022-12-16T04:49:43.500Z,-1.79
2022-12-16T04:53:08.771Z,-1.76
2022-12-16T04:56:34.088Z,-1.77
2022-12-16T04:59:59.335Z,-1.75
2022-12-16T05:03:24.654Z,-1.75
2022-12-16T05:06:49.868Z,-1.74
2022-12-16T05:10:15.130Z,-1.74
2022-12-16T05:13:40.407Z,-1.73
2022-12-16T05:17:05.658Z,-1.68
2022-12-16T05:20:31.014Z,-1.63
2022-12-16T05:23:56.230Z,-1.62
2022-12-16T05:27:21.485Z,-1.66
2022-12-16T05:30:46.817Z,-1.75
2022-12-16T05:34:12.009Z,-1.8
2022-12-16T05:37:37.317Z,-1.83
2022-12-16T05:41:02.532Z,-1.85
2022-12-16T05:44:27.790Z,-1.9
2022-12-16T05:47:53.017Z,-1.97
2022-12-16T05:51:18.243Z,-2.07
2022-12-16T05:54:43.534Z,-2.19
2022-12-16T05:58:08.691Z,-2.3
2022-12-16T06:01:34.074Z,-2.33
2022-12-16T06:04:59.186Z,-2.35
2022-12-16T06:08:24.446Z,-2.37
2022-12-16T06:11:49.721Z,-2.39
2022-12-16T06:15:15.029Z,-2.41
2022-12-16T06:18:40.348Z,-2.44
2022-12-16T06:22:05.631Z,-2.4
2022-12-16T06:25:30.880Z,-2.38
2022-12-16T06:28:56.178Z,-2.29
2022-12-16T06:32:21.342Z,-2.14
2022-12-16T06:35:46.561Z,-2.02
2022-12-16T06:39:11.809Z,-1.91
2022-12-16T06:42:37.096Z,-1.81
2022-12-16T06:46:02.387Z,-1.81
2022-12-16T06:49:27.586Z,-1.79
2022-12-16T06:52:52.812Z,-1.8
2022-12-16T06:56:18.060Z,-1.88
2022-12-16T06:59:43.291Z,-1.86
2022-12-16T07:03:08.731Z,-1.88
2022-12-16T07:06:33.746Z,-1.94
2022-12-16T07:09:59.015Z,-2.04
2022-12-16T07:13:24.233Z,-2.14
2022-12-16T07:16:49.479Z,-2.19
2022-12-16T07:20:14.703Z,-2.22
2022-12-16T07:23:39.946Z,-2.17
2022-12-16T07:27:05.193Z,-2.11
2022-12-16T07:30:30.444Z,-2.05
2022-12-16T07:33:55.667Z,-2.03
2022-12-16T07:37:20.917Z,-2
2022-12-16T07:40:46.150Z,-1.93
2022-12-16T07:44:11.409Z,-1.91
2022-12-16T07:47:36.652Z,-1.88
2022-12-16T07:51:01.864Z,-1.85
2022-12-16T07:54:27.110Z,-1.78
2022-12-16T07:57:52.316Z,-1.78
2022-12-16T08:01:17.626Z,-1.89
2022-12-16T08:04:42.784Z,-2.04
2022-12-16T08:08:08.005Z,-2.26
2022-12-16T08:11:33.357Z,-2.4
2022-12-16T08:14:58.494Z,-2.53
2022-12-16T08:18:23.750Z,-2.64
2022-12-16T08:21:48.965Z,-2.7
2022-12-16T08:25:14.197Z,-2.76
2022-12-16T08:28:39.444Z,-2.8
2022-12-16T08:32:04.615Z,-2.81
2022-12-16T08:35:29.849Z,-2.83
2022-12-16T08:38:55.083Z,-2.86
2022-12-16T08:42:20.299Z,-2.79
2022-12-16T08:45:45.654Z,-2.78
2022-12-16T08:49:10.795Z,-2.8
2022-12-16T08:52:36.039Z,-2.79
2022-12-16T08:56:01.283Z,-2.76
2022-12-16T08:59:26.520Z,-2.64
2022-12-16T09:02:51.924Z,-2.57
2022-12-16T09:06:16.952Z,-2.55
2022-12-16T09:09:42.181Z,-2.57
2022-12-16T09:13:07.404Z,-2.68
2022-12-16T09:16:32.702Z,-2.76
2022-12-16T09:19:57.886Z,-2.78
2022-12-16T09:23:23.104Z,-2.8
2022-12-16T09:26:48.406Z,-2.71
2022-12-16T09:30:13.564Z,-2.55
2022-12-16T09:33:38.794Z,-2.41
2022-12-16T09:37:04.043Z,-2.2
2022-12-16T09:40:29.269Z,-2.05
2022-12-16T09:43:54.529Z,-1.98
2022-12-16T09:47:19.749Z,-2.01
2022-12-16T09:50:44.985Z,-2.13
2022-12-16T09:54:10.271Z,-2.19
2022-12-16T09:57:35.477Z,-2.17
2022-12-16T10:01:00.718Z,-2.06
2022-12-16T10:04:25.986Z,-1.98
2022-12-16T10:07:51.192Z,-1.81
2022-12-16T10:11:16.447Z,-1.58
2022-12-16T10:14:41.695Z,-1.43
2022-12-16T10:18:07.008Z,-1.31
2022-12-16T10:21:32.203Z,-1.26
2022-12-16T10:24:57.448Z,-1.35
2022-12-16T10:28:22.743Z,-1.5
2022-12-16T10:31:48.046Z,-1.7
2022-12-16T10:35:13.190Z,-1.81
2022-12-16T10:38:38.415Z,-1.86
2022-12-16T10:42:03.642Z,-1.89
2022-12-16T10:45:28.931Z,-1.92
2022-12-16T10:48:56.356Z,-1.99
2022-12-16T10:52:19.358Z,-1.93
2022-12-16T10:55:44.567Z,-1.78
2022-12-16T10:59:09.808Z,-1.61
2022-12-16T11:02:35.287Z,-1.54
2022-12-16T11:06:00.350Z,-1.6
2022-12-16T11:09:25.611Z,-1.5
2022-12-16T11:12:50.828Z,-1.36
2022-12-16T11:16:16.088Z,-1.29
2022-12-16T11:19:41.345Z,-1.23
2022-12-16T11:23:06.603Z,-1.23
2022-12-16T11:26:36.953Z,-1.18
2022-12-16T11:29:58.650Z,-1.08
2022-12-16T11:33:23.912Z,-0.92
2022-12-16T11:36:49.195Z,-0.62
2022-12-16T11:40:14.437Z,-0.27
2022-12-16T11:43:39.711Z,0.01
2022-12-16T11:47:05.026Z,0.28
2022-12-16T11:50:30.218Z,0.39
2022-12-16T11:53:55.515Z,0.54
2022-12-16T11:57:20.736Z,0.74
2022-12-16T12:00:45.996Z,0.83
2022-12-16T12:04:11.344Z,0.75
2022-12-16T12:07:41.209Z,0.72
2022-12-16T12:11:01.892Z,0.77
2022-12-16T12:14:33.624Z,0.59
2022-12-16T12:17:58.891Z,0.32
2022-12-16T12:21:24.150Z,0.13
2022-12-16T12:24:52.432Z,-0.13
2022-12-16T12:28:14.712Z,-0.3
2022-12-16T12:31:40.031Z,-0.37
2022-12-16T12:35:05.250Z,-0.41
2022-12-16T12:38:30.511Z,-0.5
2022-12-16T12:41:55.783Z,-0.66
2022-12-16T12:45:21.101Z,-0.75
2022-12-16T12:48:46.351Z,-0.9
2022-12-16T12:52:11.585Z,-1
2022-12-16T12:55:36.867Z,-1.04
2022-12-16T12:59:02.154Z,-1.02
2022-12-16T13:02:27.500Z,-0.99
2022-12-16T13:05:52.855Z,-1.11
2022-12-16T13:09:18.138Z,-1.23
2022-12-16T13:12:43.396Z,-1.25
2022-12-16T13:16:08.784Z,-1.17
2022-12-16T13:19:34.078Z,-1.07
2022-12-16T13:22:59.356Z,-1.04
2022-12-16T13:26:24.653Z,-1.05
2022-12-16T13:29:49.961Z,-1.03
2022-12-16T13:33:15.340Z,-1.06
2022-12-16T13:36:40.629Z,-1.07
2022-12-16T13:40:05.943Z,-1.07
2022-12-16T13:43:31.330Z,-1.05
2022-12-16T13:46:56.577Z,-1.05
2022-12-16T13:50:21.830Z,-1.1
2022-12-16T13:53:47.204Z,-1.15
2022-12-16T13:57:12.510Z,-1.09
2022-12-16T14:00:37.908Z,-1.07
2022-12-16T14:04:03.307Z,-1.05
2022-12-16T14:07:28.597Z,-1.07
2022-12-16T14:10:54.007Z,-1.14
2022-12-16T14:14:19.290Z,-1.23
2022-12-16T14:17:44.668Z,-1.31
2022-12-16T14:21:09.959Z,-1.35
2022-12-16T14:24:35.270Z,-1.42
2022-12-16T14:28:00.563Z,-1.46
2022-12-16T14:31:25.802Z,-1.52
2022-12-16T15:04:11.051Z,-3.86
2022-12-16T15:07:36.139Z,-2.85
2022-12-16T15:11:01.415Z,-2.56
2022-12-16T15:14:26.678Z,-2.37
2022-12-16T15:17:51.931Z,-2.23
2022-12-16T15:21:17.238Z,-2.07
2022-12-16T15:24:42.447Z,-2
2022-12-16T15:28:07.748Z,-2
2022-12-16T15:31:33.088Z,-2
2022-12-16T15:34:58.274Z,-2.03
2022-12-16T15:38:23.609Z,-2
2022-12-16T15:41:48.856Z,-2.02
2022-12-16T15:45:14.137Z,-2.08
2022-12-16T15:48:39.501Z,-2.14
2022-12-16T15:52:04.926Z,-2.09
2022-12-16T15:55:30.258Z,-2
2022-12-16T15:58:55.571Z,-1.99
2022-12-16T16:02:20.989Z,-1.91
2022-12-16T16:05:46.372Z,-1.95
2022-12-16T16:09:11.665Z,-1.91
2022-12-16T16:12:36.952Z,-1.85
2022-12-16T16:16:02.311Z,-1.82
2022-12-16T16:19:27.548Z,-1.84
2022-12-16T16:22:52.813Z,-1.83
2022-12-16T16:26:18.210Z,-1.83
2022-12-16T16:29:43.516Z,-1.86
2022-12-16T16:33:08.738Z,-1.86
2022-12-16T16:36:34.046Z,-1.83
2022-12-16T16:39:59.318Z,-1.83
2022-12-16T16:43:24.639Z,-1.81
2022-12-16T16:46:49.972Z,-1.74
2022-12-16T16:50:19.193Z,-1.64
2022-12-16T16:53:40.514Z,-1.57
2022-12-16T16:57:05.819Z,-1.6
2022-12-16T17:00:31.141Z,-1.6
2022-12-16T17:03:56.717Z,-1.56
2022-12-16T17:07:21.759Z,-1.54
2022-12-16T17:10:47.241Z,-1.55
2022-12-16T17:14:12.524Z,-1.58
2022-12-16T17:17:37.970Z,-1.62
2022-12-16T17:21:03.302Z,-1.6
2022-12-16T17:24:28.516Z,-1.61
2022-12-16T17:27:53.838Z,-1.61
2022-12-16T17:31:19.188Z,-1.6
2022-12-16T17:34:44.378Z,-1.59
2022-12-16T17:38:09.646Z,-1.56
2022-12-16T17:41:34.944Z,-1.55
2022-12-16T17:45:00.833Z,-1.56
2022-12-16T17:48:26.083Z,-1.58
2022-12-16T17:51:51.327Z,-1.54
2022-12-16T17:55:16.640Z,-1.51
2022-12-16T17:58:41.883Z,-1.45
2022-12-16T18:02:07.264Z,-1.28
2022-12-16T18:05:37.811Z,-1.22
2022-12-16T18:08:57.756Z,-1.22
2022-12-16T18:12:23.061Z,-1.2
2022-12-16T18:15:48.403Z,-1.1
2022-12-16T18:19:13.600Z,-1.05
2022-12-16T18:22:38.864Z,-1.05
2022-12-16T18:26:04.159Z,-1.09
2022-12-16T18:29:29.441Z,-1.16
2022-12-16T18:32:54.752Z,-1.22
2022-12-16T18:36:19.995Z,-1.21
2022-12-16T18:39:45.278Z,-1.16
2022-12-16T18:43:10.551Z,-1.09
2022-12-16T18:46:35.841Z,-1.05
2022-12-16T18:50:01.147Z,-0.97
2022-12-16T18:53:26.439Z,-0.97
2022-12-16T18:56:51.681Z,-1.02
2022-12-16T19:00:16.957Z,-1.02
2022-12-16T19:03:42.238Z,-1
2022-12-16T19:07:07.487Z,-1.02
2022-12-16T19:10:32.823Z,-0.97
2022-12-16T19:13:58.084Z,-0.99
2022-12-16T19:17:23.337Z,-1.01
2022-12-16T19:20:48.665Z,-0.95
2022-12-16T19:24:13.961Z,-0.94
2022-12-16T19:27:39.213Z,-0.97
2022-12-16T19:31:04.486Z,-1.01
2022-12-16T19:34:29.747Z,-1.05
2022-12-16T19:37:55.056Z,-1.13
2022-12-16T19:41:20.276Z,-1.22
2022-12-16T19:44:45.556Z,-1.27
2022-12-16T19:48:10.830Z,-1.25
2022-12-16T19:51:36.080Z,-1.2
2022-12-16T19:55:01.386Z,-1.15
2022-12-16T19:58:26.629Z,-1.11
2022-12-16T20:01:52.078Z,-1.08
2022-12-16T20:05:17.166Z,-1.1
2022-12-16T20:08:42.461Z,-1.2
2022-12-16T20:12:07.737Z,-1.27
2022-12-16T20:15:32.971Z,-1.3
2022-12-16T20:18:58.243Z,-1.31
2022-12-16T20:22:23.489Z,-1.36
2022-12-16T20:25:48.750Z,-1.44
2022-12-16T20:29:14.054Z,-1.5
2022-12-16T20:32:39.349Z,-1.54
2022-12-16T20:36:04.630Z,-1.56
2022-12-16T20:39:29.867Z,-1.58
2022-12-16T20:42:55.141Z,-1.61
2022-12-16T20:46:20.531Z,-1.62
2022-12-16T20:49:45.802Z,-1.52
2022-12-16T20:53:11.061Z,-1.39
2022-12-16T20:56:36.363Z,-1.28
2022-12-16T21:00:01.719Z,-1.22
2022-12-16T21:03:26.943Z,-1.24
2022-12-16T21:06:52.209Z,-1.23
2022-12-16T21:10:17.493Z,-1.19
2022-12-16T21:13:43.394Z,-1.21
2022-12-16T21:17:08.014Z,-1.22
2022-12-16T21:20:33.317Z,-1.23
2022-12-16T21:23:58.555Z,-1.28
2022-12-16T21:27:23.820Z,-1.31
2022-12-16T21:30:49.084Z,-1.32
2022-12-16T21:34:14.395Z,-1.39
2022-12-16T21:37:39.682Z,-1.43
2022-12-16T21:41:04.900Z,-1.51
2022-12-16T21:44:30.147Z,-1.56
2022-12-16T21:47:55.985Z,-1.59
2022-12-16T21:51:20.693Z,-1.61
2022-12-16T21:54:46.791Z,-1.63
2022-12-16T21:58:12.044Z,-1.67
2022-12-16T22:01:37.317Z,-1.76
2022-12-16T22:05:02.565Z,-1.77
2022-12-16T22:08:27.863Z,-1.74
2022-12-16T22:11:53.095Z,-1.72
2022-12-16T22:15:18.357Z,-1.68
2022-12-16T22:18:43.624Z,-1.67
2022-12-16T22:22:08.880Z,-1.76
2022-12-16T22:25:34.159Z,-1.88
2022-12-16T22:28:59.440Z,-1.93
2022-12-16T22:32:24.667Z,-1.95
2022-12-16T22:35:49.958Z,-2
2022-12-16T22:39:15.243Z,-2.01
2022-12-16T22:42:40.496Z,-2.03
2022-12-16T22:46:05.849Z,-2.05
2022-12-16T22:49:31.060Z,-2.01
2022-12-16T22:52:56.311Z,-1.92
2022-12-16T22:56:21.557Z,-1.88
2022-12-16T22:59:46.835Z,-1.78
2022-12-16T23:03:12.131Z,-1.66
2022-12-16T23:06:37.313Z,-1.63
2022-12-16T23:10:02.605Z,-1.61
2022-12-16T23:13:27.874Z,-1.57
2022-12-16T23:20:18.432Z,-1.57
2022-12-16T23:23:43.759Z,-1.51
2022-12-16T23:27:08.970Z,-1.46
2022-12-16T23:30:34.233Z,-1.42
2022-12-16T23:32:31.146Z,-1.59
2022-12-16T23:33:59.500Z,-1.43
2022-12-16T23:37:24.770Z,-1.53
2022-12-16T23:40:49.999Z,-1.56
2022-12-16T23:44:15.261Z,-1.54
2022-12-16T23:47:40.544Z,-1.54
2022-12-16T23:51:05.837Z,-1.55
2022-12-16T23:54:31.116Z,-1.56
2022-12-16T23:57:56.342Z,-1.6
